Strona główna
METAR-TAF:

METAR-TAF

Lotnisko :

Ann Arbor, Michigan, Stany Zjednoczone

Szerokość geograficzna: 42-13-26N, Długość geograficzna: 083-44-24W, wysokość: 255 m

Aktualna obserwacja pogody

Raport powstał 11 minut temu, godzina 17:14 UTC
Wiatr 11 kt od zachód w porywach dochodzący do 16 kt
Temperatura 32°C
Wilgotność 71%
Ciśnienie 1012 hPa
Widzialność: 11.3 km
Rozproszone chmury na wysokości 2800 ft
Przerywane chmury na wysokości 3300 ft

METAR: KARB 191714Z 26011G16KT 7SM SCT028 BKN033 32/26 A2987 RMK AO2 T03170261

czas: 13:25 (17:25 UTC)


TAF: brakujący

Obserwacja i prognoza pogody dla ponad 4000 lotnisk (raport METAR i TAF).

Dostępne stacje oznaczono żółtymi i czerwonymi punktami na mapie.

Najedź kursorem aby zobaczyć nazwę stacji.

Kliknij aby zobaczyć obserwacje i prognozy pogody.

Aby zmienić mapę: kliknij na zielony przycisk z czarnym krzyżykiem, aby powiększyć; na zielony przycisk z myślnikiem, aby pomniejszyć; na zielone strzałki, aby przejść do map sąsiednich.


METAR-TAF: